createdAt,value
2019-02-16T00:01:51.105Z,7.87
2019-02-16T00:04:22.222Z,7.30
2019-02-16T00:06:53.803Z,8.05
2019-02-16T00:09:25.356Z,7.83
2019-02-16T00:11:56.526Z,7.55
2019-02-16T00:14:27.607Z,7.15
2019-02-16T00:16:58.646Z,7.83
2019-02-16T00:19:29.714Z,6.65
2019-02-16T00:22:00.880Z,7.12
2019-02-16T00:24:31.939Z,7.03
2019-02-16T00:27:03.100Z,7.28
2019-02-16T00:29:34.330Z,6.90
2019-02-16T00:32:05.697Z,7.58
2019-02-16T00:34:36.814Z,6.95
2019-02-16T00:37:07.938Z,6.42
2019-02-16T00:39:39.142Z,7.42
2019-02-16T00:42:10.723Z,7.10
2019-02-16T00:44:42.115Z,9.63
2019-02-16T00:47:13.131Z,7.10
2019-02-16T00:49:44.316Z,7.45
2019-02-16T00:52:15.806Z,6.85
2019-02-16T00:54:46.994Z,7.03
2019-02-16T00:57:18.142Z,7.10
2019-02-16T00:59:49.545Z,6.90
2019-02-16T01:02:20.971Z,6.80
2019-02-16T01:04:52.087Z,6.67
2019-02-16T01:07:23.256Z,7.30
2019-02-16T01:09:54.395Z,6.60
2019-02-16T01:12:25.560Z,6.92
2019-02-16T01:14:57.425Z,6.65
2019-02-16T01:17:28.595Z,6.17
2019-02-16T01:19:59.802Z,6.65
2019-02-16T01:22:30.987Z,6.22
2019-02-16T01:25:02.105Z,6.37
2019-02-16T01:27:33.505Z,6.92
2019-02-16T01:30:05.430Z,6.28
2019-02-16T01:32:36.813Z,6.80
2019-02-16T01:35:09.135Z,6.78
2019-02-16T01:37:40.399Z,6.72
2019-02-16T01:40:12.231Z,6.50
2019-02-16T01:42:43.407Z,6.30
2019-02-16T01:45:14.684Z,6.40
2019-02-16T01:47:45.772Z,6.40
2019-02-16T01:50:16.970Z,6.20
2019-02-16T01:52:48.145Z,6.58
2019-02-16T01:55:19.461Z,6.95
2019-02-16T01:57:50.866Z,6.33
2019-02-16T02:00:22.054Z,6.80
2019-02-16T02:02:53.151Z,6.08
2019-02-16T02:05:25.427Z,6.25
2019-02-16T02:07:56.449Z,5.90
2019-02-16T02:10:27.884Z,5.90
2019-02-16T02:12:58.918Z,6.25
2019-02-16T02:15:30.187Z,5.95
2019-02-16T02:18:01.674Z,5.97
2019-02-16T02:20:32.802Z,6.03
2019-02-16T02:23:04.263Z,6.03
2019-02-16T02:25:36.840Z,6.25
2019-02-16T02:28:08.032Z,6.37
2019-02-16T02:30:39.535Z,6.22
2019-02-16T02:33:10.785Z,5.97
2019-02-16T02:35:42.067Z,5.80
2019-02-16T02:38:13.480Z,6.30
2019-02-16T02:40:44.594Z,5.70
2019-02-16T02:43:16.068Z,6.00
2019-02-16T02:45:48.233Z,5.75
2019-02-16T02:48:20.100Z,5.47
2019-02-16T02:50:51.153Z,5.75
2019-02-16T02:53:30.678Z,5.95
2019-02-16T02:55:55.546Z,5.42
2019-02-16T02:58:26.721Z,6.22
2019-02-16T03:00:58.272Z,5.50
2019-02-16T03:03:29.387Z,5.72
2019-02-16T03:06:02.400Z,5.95
2019-02-16T03:08:33.578Z,5.22
2019-02-16T03:11:04.731Z,5.55
2019-02-16T03:13:35.906Z,5.45
2019-02-16T03:16:07.258Z,6.12
2019-02-16T03:18:38.348Z,6.05
2019-02-16T03:21:09.576Z,5.25
2019-02-16T03:23:41.129Z,5.83
2019-02-16T03:26:52.982Z,5.78
2019-02-16T03:29:42.587Z,5.65
2019-02-16T03:32:55.374Z,5.92
2019-02-16T03:36:32.818Z,5.45
2019-02-16T03:39:21.587Z,5.33
2019-02-16T03:41:52.866Z,5.00
2019-02-16T03:44:23.998Z,5.08
2019-02-16T03:46:55.130Z,5.10
2019-02-16T03:49:26.315Z,5.25
2019-02-16T03:51:57.500Z,5.78
2019-02-16T03:54:28.661Z,5.75
2019-02-16T03:56:59.710Z,5.50
2019-02-16T03:59:30.959Z,5.50
2019-02-16T04:02:02.447Z,4.55
2019-02-16T04:04:33.742Z,5.22
2019-02-16T04:07:04.997Z,5.58
2019-02-16T04:09:36.157Z,5.15
2019-02-16T04:12:07.637Z,5.42
2019-02-16T04:14:39.090Z,5.65
2019-02-16T04:17:10.303Z,5.50
2019-02-16T04:19:41.743Z,4.50
2019-02-16T04:22:23.694Z,5.30
2019-02-16T04:24:46.025Z,5.83
2019-02-16T04:27:17.236Z,4.45
2019-02-16T04:29:48.331Z,5.65
2019-02-16T04:32:19.566Z,5.30
2019-02-16T04:34:50.762Z,5.12
2019-02-16T04:37:21.891Z,5.05
2019-02-16T04:39:53.053Z,5.12
2019-02-16T04:42:24.331Z,5.92
2019-02-16T04:44:55.522Z,5.83
2019-02-16T04:47:27.438Z,5.12
2019-02-16T04:49:58.702Z,5.33
2019-02-16T04:52:34.941Z,5.53
2019-02-16T04:55:03.291Z,5.28
2019-02-16T04:57:34.773Z,5.37
2019-02-16T05:00:06.537Z,5.35
2019-02-16T05:02:38.960Z,4.62
2019-02-16T05:05:10.474Z,5.10
2019-02-16T05:07:41.601Z,4.87
2019-02-16T05:10:13.383Z,4.62
2019-02-16T05:12:44.535Z,4.67
2019-02-16T05:15:15.783Z,5.33
2019-02-16T05:17:47.158Z,5.22
2019-02-16T05:20:18.165Z,4.70
2019-02-16T05:22:49.349Z,4.90
2019-02-16T05:25:20.424Z,4.05
2019-02-16T05:27:51.885Z,4.60
2019-02-16T05:30:23.424Z,4.92
2019-02-16T05:32:54.819Z,5.00
2019-02-16T05:35:25.994Z,4.67
2019-02-16T05:37:57.106Z,4.75
2019-02-16T05:40:28.267Z,4.78
2019-02-16T05:42:59.561Z,4.92
2019-02-16T05:45:30.859Z,4.62
2019-02-16T05:48:02.054Z,4.87
2019-02-16T05:50:33.592Z,4.05
2019-02-16T05:53:04.989Z,4.75
2019-02-16T05:55:36.023Z,4.85
2019-02-16T05:58:07.518Z,4.12
2019-02-16T06:00:38.571Z,4.10
2019-02-16T06:03:10.029Z,3.98
2019-02-16T06:05:41.134Z,4.22
2019-02-16T06:08:12.607Z,4.40
2019-02-16T06:10:43.697Z,3.87
2019-02-16T06:13:14.913Z,3.90
2019-02-16T06:15:46.446Z,4.15
2019-02-16T06:18:17.669Z,4.33
2019-02-16T06:20:48.840Z,3.98
2019-02-16T06:23:20.034Z,4.33
2019-02-16T06:25:51.127Z,4.33
2019-02-16T06:28:22.250Z,4.28
2019-02-16T06:30:53.347Z,4.28
2019-02-16T06:33:24.758Z,4.05
2019-02-16T06:36:02.482Z,4.62
2019-02-16T06:38:33.777Z,3.98
2019-02-16T06:41:05.231Z,4.10
2019-02-16T06:43:36.551Z,3.75
2019-02-16T06:46:07.942Z,3.65
2019-02-16T06:48:39.397Z,3.90
2019-02-16T06:51:10.574Z,4.22
2019-02-16T06:53:42.094Z,4.10
2019-02-16T06:56:27.466Z,3.62
2019-02-16T06:58:58.951Z,3.98
2019-02-16T07:01:30.331Z,3.92
2019-02-16T07:04:02.946Z,3.75
2019-02-16T07:06:33.988Z,3.52
2019-02-16T07:09:06.370Z,3.83
2019-02-16T07:11:37.531Z,4.47
2019-02-16T07:14:08.668Z,3.87
2019-02-16T07:16:54.563Z,4.08
2019-02-16T07:19:47.868Z,3.75
2019-02-16T07:22:19.083Z,4.55
2019-02-16T07:24:50.303Z,4.58
2019-02-16T07:27:21.495Z,4.28
2019-02-16T07:29:52.707Z,4.15
2019-02-16T07:32:24.631Z,3.77
2019-02-16T07:34:56.393Z,4.22
2019-02-16T07:37:27.463Z,4.25
2019-02-16T07:39:59.952Z,4.78
2019-02-16T07:42:49.286Z,4.35
2019-02-16T07:45:38.031Z,4.20
2019-02-16T07:48:33.807Z,4.60
2019-02-16T07:51:17.154Z,3.98
2019-02-16T07:53:56.536Z,3.58
2019-02-16T07:56:46.742Z,3.90
2019-02-16T07:59:40.130Z,3.58
2019-02-16T08:02:17.358Z,4.37
2019-02-16T08:05:06.472Z,4.40
2019-02-16T08:08:01.134Z,4.15
2019-02-16T08:10:51.739Z,5.10
2019-02-16T08:13:33.149Z,4.55
2019-02-16T08:16:13.817Z,4.92
2019-02-16T08:18:54.816Z,4.25
2019-02-16T08:21:44.441Z,4.92
2019-02-16T08:24:38.710Z,4.75
2019-02-16T08:27:28.862Z,4.20
2019-02-16T08:30:07.043Z,3.42
2019-02-16T08:32:49.826Z,3.60
2019-02-16T08:35:36.870Z,4.12
2019-02-16T08:38:25.973Z,3.30
2019-02-16T08:41:28.289Z,4.00
2019-02-16T08:44:10.233Z,3.55
2019-02-16T08:47:00.277Z,3.62
2019-02-16T08:49:47.127Z,2.92
2019-02-16T08:52:34.580Z,3.00
2019-02-16T08:55:15.714Z,3.25
2019-02-16T08:58:04.024Z,3.33
2019-02-16T09:00:48.629Z,3.08
2019-02-16T09:03:40.215Z,3.02
2019-02-16T09:06:29.325Z,2.98
2019-02-16T09:09:16.310Z,3.08
2019-02-16T09:11:58.416Z,2.92
2019-02-16T09:14:53.431Z,2.98
2019-02-16T09:17:46.526Z,3.15
2019-02-16T09:20:37.224Z,3.22
2019-02-16T09:23:21.294Z,3.17
2019-02-16T09:26:14.421Z,2.80
2019-02-16T09:29:10.682Z,3.00
2019-02-16T09:31:59.351Z,2.60
2019-02-16T09:35:01.627Z,2.75
2019-02-16T09:37:50.728Z,2.33
2019-02-16T09:40:38.657Z,2.58
2019-02-16T09:43:14.943Z,2.70
2019-02-16T09:46:08.194Z,1.98
2019-02-16T09:49:01.042Z,2.22
2019-02-16T09:52:00.027Z,1.92
2019-02-16T09:54:50.349Z,2.30
2019-02-16T09:57:46.430Z,2.02
2019-02-16T10:00:48.874Z,2.45
2019-02-16T10:03:34.964Z,2.72
2019-02-16T10:06:43.494Z,2.12
2019-02-16T10:09:36.694Z,2.50
2019-02-16T10:12:29.856Z,2.05
2019-02-16T10:15:12.414Z,2.42
2019-02-16T10:18:08.139Z,2.42
2019-02-16T10:20:51.110Z,2.37
2019-02-16T10:23:50.767Z,2.62
2019-02-16T10:26:37.934Z,2.37
2019-02-16T10:29:23.776Z,2.72
2019-02-16T10:32:12.811Z,2.17
2019-02-16T10:35:00.317Z,2.27
2019-02-16T10:37:56.560Z,1.90
2019-02-16T10:41:05.151Z,1.85
2019-02-16T10:43:48.590Z,2.40
2019-02-16T10:46:57.215Z,2.25
2019-02-16T10:49:56.507Z,1.60
2019-02-16T10:52:35.785Z,1.82
2019-02-16T10:55:25.864Z,1.60
2019-02-16T10:58:15.264Z,2.08
2019-02-16T11:01:04.399Z,2.17
2019-02-16T11:03:58.008Z,1.62
2019-02-16T11:06:48.204Z,2.10
2019-02-16T11:09:37.492Z,2.15
2019-02-16T11:12:36.890Z,1.87
2019-02-16T11:15:40.648Z,1.62
2019-02-16T11:18:33.761Z,2.10
2019-02-16T11:21:19.434Z,1.98
2019-02-16T11:24:02.477Z,1.75
2019-02-16T11:26:44.562Z,1.57
2019-02-16T11:29:32.748Z,2.08
2019-02-16T11:32:24.145Z,2.00
2019-02-16T11:35:17.160Z,1.90
2019-02-16T11:38:19.548Z,1.87
2019-02-16T11:41:18.665Z,1.90
2019-02-16T11:44:16.983Z,1.70
2019-02-16T11:47:10.345Z,1.70
2019-02-16T11:50:03.554Z,1.52
2019-02-16T11:53:02.499Z,2.00
2019-02-16T11:55:51.657Z,1.60
2019-02-16T11:58:35.633Z,1.92
2019-02-16T12:01:26.257Z,1.75
2019-02-16T12:04:02.809Z,1.42
2019-02-16T12:06:37.871Z,1.40
2019-02-16T12:09:24.617Z,1.62
2019-02-16T12:12:11.326Z,2.00
2019-02-16T12:15:04.314Z,1.55
2019-02-16T12:17:56.792Z,1.90
2019-02-16T12:20:49.923Z,2.37
2019-02-16T12:23:55.353Z,2.12
2019-02-16T12:26:44.104Z,1.87
2019-02-16T12:29:49.185Z,1.75
2019-02-16T12:32:30.783Z,1.70
2019-02-16T12:35:21.437Z,1.80
2019-02-16T12:38:13.800Z,1.80
2019-02-16T12:41:08.523Z,1.32
2019-02-16T12:44:02.049Z,2.00
2019-02-16T12:46:45.488Z,1.70
2019-02-16T12:49:38.912Z,1.77
2019-02-16T12:52:33.046Z,1.45
2019-02-16T12:55:14.956Z,1.50
2019-02-16T12:57:53.577Z,1.70
2019-02-16T13:00:43.672Z,1.52
2019-02-16T13:03:36.927Z,1.30
2019-02-16T13:06:20.887Z,1.17
2019-02-16T13:09:02.938Z,1.98
2019-02-16T13:11:53.138Z,1.50
2019-02-16T13:14:32.115Z,1.30
2019-02-16T13:17:20.947Z,1.50
2019-02-16T13:20:18.740Z,1.95
2019-02-16T13:23:11.977Z,1.55
2019-02-16T13:26:20.461Z,1.40
2019-02-16T13:29:06.539Z,1.42
2019-02-16T13:31:45.944Z,1.45
2019-02-16T13:34:23.704Z,1.70
2019-02-16T13:37:13.115Z,1.60
2019-02-16T13:39:56.256Z,1.40
2019-02-16T13:42:45.106Z,1.42
2019-02-16T13:45:32.965Z,1.80
2019-02-16T13:48:12.434Z,1.57
2019-02-16T13:51:11.877Z,1.75
2019-02-16T13:53:58.476Z,1.55
2019-02-16T13:57:04.059Z,1.67
2019-02-16T13:59:45.336Z,1.70
2019-02-16T14:02:53.746Z,1.90
2019-02-16T14:05:42.886Z,2.20
2019-02-16T14:08:23.818Z,2.55
2019-02-16T14:11:32.019Z,2.15
2019-02-16T14:14:10.566Z,1.90
2019-02-16T14:17:01.094Z,1.87
2019-02-16T14:19:32.215Z,1.90
2019-02-16T14:22:03.313Z,1.95
2019-02-16T14:24:46.828Z,1.77
2019-02-16T14:27:17.990Z,1.62
2019-02-16T14:29:49.195Z,1.70
2019-02-16T14:32:20.429Z,1.80
2019-02-16T14:34:51.989Z,1.90
2019-02-16T14:37:48.282Z,1.80
2019-02-16T14:40:20.428Z,1.92
2019-02-16T14:42:51.809Z,2.25
2019-02-16T14:45:22.910Z,2.05
2019-02-16T14:47:54.142Z,1.85
2019-02-16T14:50:25.254Z,2.10
2019-02-16T14:52:56.815Z,1.75
2019-02-16T14:55:28.244Z,1.80
2019-02-16T14:57:59.408Z,1.57
2019-02-16T15:00:30.585Z,2.30
2019-02-16T15:03:01.799Z,1.82
2019-02-16T15:05:32.912Z,2.02
2019-02-16T15:08:04.625Z,1.92
2019-02-16T15:10:35.756Z,1.92
2019-02-16T15:13:06.986Z,2.35
2019-02-16T15:15:38.161Z,2.35
2019-02-16T15:18:09.524Z,1.87
2019-02-16T15:20:40.998Z,2.05
2019-02-16T15:23:12.124Z,1.92
2019-02-16T15:25:44.264Z,2.08
2019-02-16T15:28:15.954Z,2.00
2019-02-16T15:30:47.050Z,2.17
2019-02-16T15:33:19.275Z,2.37
2019-02-16T15:35:50.389Z,2.72
2019-02-16T15:38:21.452Z,2.55
2019-02-16T15:40:52.832Z,3.00
2019-02-16T15:43:24.646Z,3.00
2019-02-16T15:46:02.366Z,3.05
2019-02-16T15:48:37.869Z,2.95
2019-02-16T15:51:24.972Z,2.20
2019-02-16T15:54:02.274Z,2.58
2019-02-16T15:56:44.349Z,2.20
2019-02-16T15:59:39.390Z,2.27
2019-02-16T16:02:30.535Z,2.15
2019-02-16T16:05:18.230Z,2.47
2019-02-16T16:08:21.082Z,2.00
2019-02-16T16:11:24.091Z,2.02
2019-02-16T16:14:23.768Z,2.35
2019-02-16T16:17:28.633Z,2.80
2019-02-16T16:20:38.371Z,2.98
2019-02-16T16:23:54.830Z,2.75
2019-02-16T16:27:09.048Z,2.80
2019-02-16T16:30:11.937Z,2.33
2019-02-16T16:33:18.807Z,2.87
2019-02-16T16:36:39.107Z,2.50
2019-02-16T16:40:09.677Z,2.87
2019-02-16T16:43:32.502Z,2.75
2019-02-16T16:46:39.279Z,2.55
2019-02-16T16:49:46.171Z,2.60
2019-02-16T16:52:54.659Z,2.85
2019-02-16T16:55:48.459Z,3.60
2019-02-16T16:58:49.708Z,2.58
2019-02-16T17:01:43.579Z,4.03
2019-02-16T17:04:48.949Z,4.83
2019-02-16T17:08:03.907Z,3.83
2019-02-16T17:11:11.282Z,4.08
2019-02-16T17:14:04.149Z,3.90
2019-02-16T17:17:05.405Z,3.60
2019-02-16T17:20:19.561Z,3.40
2019-02-16T17:23:19.888Z,3.75
2019-02-16T17:26:18.589Z,3.60
2019-02-16T17:29:39.595Z,5.08
2019-02-16T17:33:07.048Z,4.20
2019-02-16T17:36:03.461Z,5.00
2019-02-16T17:39:42.318Z,4.70
2019-02-16T17:43:01.083Z,5.30
2019-02-16T17:46:41.953Z,5.75
2019-02-16T17:49:58.974Z,5.85
2019-02-16T17:53:05.420Z,5.92
2019-02-16T17:55:54.825Z,6.00
2019-02-16T17:59:06.313Z,5.97
2019-02-16T18:02:44.630Z,5.50
2019-02-16T18:05:48.224Z,5.35
2019-02-16T18:09:38.842Z,4.97
2019-02-16T18:12:08.642Z,4.97
2019-02-16T18:15:34.577Z,4.97
2019-02-16T18:18:43.713Z,5.40
2019-02-16T18:22:08.925Z,4.70
2019-02-16T18:25:32.259Z,4.37
2019-02-16T18:28:39.788Z,4.03
2019-02-16T18:31:49.011Z,4.72
2019-02-16T18:34:57.399Z,3.85
2019-02-16T18:38:10.474Z,3.90
2019-02-16T18:41:12.087Z,4.12
2019-02-16T18:47:44.915Z,4.30
2019-02-16T18:50:57.457Z,6.17
2019-02-16T18:54:01.384Z,4.08
2019-02-16T18:57:06.850Z,4.00
2019-02-16T19:00:21.584Z,4.72
2019-02-16T19:03:21.165Z,4.70
2019-02-16T19:06:39.247Z,4.47
2019-02-16T19:09:55.443Z,4.78
2019-02-16T19:12:54.809Z,4.65
2019-02-16T19:16:23.309Z,4.45
2019-02-16T19:19:27.803Z,5.25
2019-02-16T19:22:31.374Z,4.67
2019-02-16T19:25:34.191Z,5.30
2019-02-16T19:28:33.956Z,4.83
2019-02-16T19:32:04.311Z,5.35
2019-02-16T19:35:22.660Z,4.95
2019-02-16T19:38:21.044Z,4.35
2019-02-16T19:41:38.598Z,4.42
2019-02-16T19:44:58.791Z,4.37
2019-02-16T19:47:57.768Z,4.17
2019-02-16T19:51:03.726Z,4.83
2019-02-16T19:54:21.583Z,3.95
2019-02-16T19:57:32.048Z,4.60
2019-02-16T20:00:42.165Z,4.67
2019-02-16T20:03:40.178Z,4.50
2019-02-16T20:06:50.297Z,4.70
2019-02-16T20:09:50.241Z,5.00
2019-02-16T20:12:59.584Z,5.05
2019-02-16T20:16:03.103Z,5.10
2019-02-16T20:19:10.895Z,5.78
2019-02-16T20:22:09.749Z,5.87
2019-02-16T20:25:27.933Z,5.67
2019-02-16T20:28:22.014Z,5.15
2019-02-16T20:31:30.531Z,4.53
2019-02-16T20:34:39.059Z,4.70
2019-02-16T20:38:04.224Z,4.78
2019-02-16T20:41:19.541Z,4.40
2019-02-16T20:44:27.449Z,4.80
2019-02-16T20:47:27.778Z,4.22
2019-02-16T20:50:50.244Z,4.85
2019-02-16T20:53:38.470Z,4.92
2019-02-16T20:56:28.082Z,5.20
2019-02-16T20:59:27.860Z,5.60
2019-02-16T21:02:15.112Z,4.62
2019-02-16T21:05:13.601Z,4.22
2019-02-16T21:08:04.230Z,4.75
2019-02-16T21:10:53.818Z,5.12
2019-02-16T21:13:42.905Z,5.40
2019-02-16T21:16:33.072Z,4.60
2019-02-16T21:19:17.763Z,4.95
2019-02-16T21:21:59.135Z,5.33
2019-02-16T21:24:48.096Z,4.87
2019-02-16T21:27:39.209Z,5.22
2019-02-16T21:30:28.574Z,5.05
2019-02-16T21:33:12.212Z,4.67
2019-02-16T21:36:01.932Z,5.12
2019-02-16T21:38:43.495Z,4.70
2019-02-16T21:41:39.644Z,4.83
2019-02-16T21:44:29.281Z,5.03
2019-02-16T21:47:34.878Z,5.03
2019-02-16T21:50:18.568Z,5.03
2019-02-16T21:53:07.183Z,5.40
2019-02-16T21:55:55.920Z,5.65
2019-02-16T21:58:45.086Z,4.60
2019-02-16T22:01:44.597Z,5.70
2019-02-16T22:04:38.467Z,5.47
2019-02-16T22:07:31.619Z,5.12
2019-02-16T22:10:20.336Z,5.40
2019-02-16T22:13:04.369Z,4.47
2019-02-16T22:15:37.034Z,4.83
2019-02-16T22:18:08.212Z,4.87
2019-02-16T22:20:39.421Z,4.90
2019-02-16T22:23:10.581Z,4.75
2019-02-16T22:25:41.789Z,4.97
2019-02-16T22:28:18.631Z,5.05
2019-02-16T22:30:46.134Z,4.72
2019-02-16T22:33:17.308Z,4.72
2019-02-16T22:35:48.523Z,5.65
2019-02-16T22:38:19.794Z,4.55
2019-02-16T22:40:51.196Z,5.33
2019-02-16T22:43:22.377Z,5.50
2019-02-16T22:45:53.574Z,5.30
2019-02-16T22:48:25.319Z,5.10
2019-02-16T22:50:56.631Z,5.15
2019-02-16T22:53:27.672Z,5.40
2019-02-16T22:55:58.845Z,5.37
2019-02-16T22:58:30.078Z,5.53
2019-02-16T23:01:01.903Z,5.65
2019-02-16T23:03:34.781Z,5.40
2019-02-16T23:06:06.033Z,5.45
2019-02-16T23:08:37.214Z,5.10
2019-02-16T23:11:08.439Z,5.33
2019-02-16T23:13:39.759Z,5.25
2019-02-16T23:16:11.024Z,6.20
2019-02-16T23:18:42.539Z,5.65
2019-02-16T23:21:14.398Z,6.05
2019-02-16T23:23:45.945Z,6.00
2019-02-16T23:26:17.038Z,5.92
2019-02-16T23:28:48.188Z,5.83
2019-02-16T23:31:19.686Z,5.90
2019-02-16T23:33:50.738Z,5.55
2019-02-16T23:36:22.206Z,6.12
2019-02-16T23:38:53.320Z,5.65
2019-02-16T23:41:24.392Z,6.28
2019-02-16T23:43:55.516Z,6.27
2019-02-16T23:46:26.648Z,6.25
2019-02-16T23:48:57.780Z,5.87
2019-02-16T23:51:28.890Z,6.20
2019-02-16T23:54:00.379Z,6.03
2019-02-16T23:56:32.240Z,6.58
2019-02-16T23:59:03.368Z,5.97
